sensor_id;sensor_type;location;lat;lon;timestamp;P1;durP1;ratioP1;P2;durP2;ratioP2
5718;SDS011;2884;47.734;9.244;2024-02-21T00:01:41;11.43;;;4.33;;
5718;SDS011;2884;47.734;9.244;2024-02-21T00:04:07;8.07;;;3.87;;
5718;SDS011;2884;47.734;9.244;2024-02-21T00:06:32;7.97;;;3.80;;
5718;SDS011;2884;47.734;9.244;2024-02-21T00:08:58;10.30;;;4.20;;
5718;SDS011;2884;47.734;9.244;2024-02-21T00:11:24;10.13;;;4.00;;
5718;SDS011;2884;47.734;9.244;2024-02-21T00:13:49;7.17;;;4.00;;
5718;SDS011;2884;47.734;9.244;2024-02-21T00:16:16;10.27;;;3.80;;
5718;SDS011;2884;47.734;9.244;2024-02-21T00:18:43;5.80;;;3.85;;
5718;SDS011;2884;47.734;9.244;2024-02-21T00:21:08;9.77;;;4.22;;
5718;SDS011;2884;47.734;9.244;2024-02-21T00:23:34;6.10;;;4.27;;
5718;SDS011;2884;47.734;9.244;2024-02-21T00:26:00;14.33;;;4.57;;
5718;SDS011;2884;47.734;9.244;2024-02-21T00:28:25;10.83;;;4.00;;
5718;SDS011;2884;47.734;9.244;2024-02-21T00:30:51;7.97;;;4.97;;
5718;SDS011;2884;47.734;9.244;2024-02-21T00:33:18;7.63;;;4.25;;
5718;SDS011;2884;47.734;9.244;2024-02-21T00:35:44;8.80;;;4.00;;
5718;SDS011;2884;47.734;9.244;2024-02-21T00:38:09;5.93;;;4.27;;
5718;SDS011;2884;47.734;9.244;2024-02-21T00:40:35;6.70;;;4.00;;
5718;SDS011;2884;47.734;9.244;2024-02-21T00:43:01;6.57;;;4.27;;
5718;SDS011;2884;47.734;9.244;2024-02-21T00:45:26;7.87;;;3.90;;
5718;SDS011;2884;47.734;9.244;2024-02-21T00:47:52;10.07;;;4.73;;
5718;SDS011;2884;47.734;9.244;2024-02-21T00:50:17;11.53;;;4.37;;
5718;SDS011;2884;47.734;9.244;2024-02-21T00:52:43;10.03;;;3.80;;
5718;SDS011;2884;47.734;9.244;2024-02-21T00:55:09;12.80;;;4.40;;
5718;SDS011;2884;47.734;9.244;2024-02-21T00:57:35;12.13;;;4.57;;
5718;SDS011;2884;47.734;9.244;2024-02-21T01:00:01;13.63;;;4.37;;
5718;SDS011;2884;47.734;9.244;2024-02-21T01:02:28;9.50;;;4.70;;
5718;SDS011;2884;47.734;9.244;2024-02-21T01:04:56;15.18;;;5.03;;
5718;SDS011;2884;47.734;9.244;2024-02-21T01:07:22;8.88;;;4.15;;
5718;SDS011;2884;47.734;9.244;2024-02-21T01:09:48;12.97;;;4.00;;
5718;SDS011;2884;47.734;9.244;2024-02-21T01:12:13;7.40;;;4.40;;
5718;SDS011;2884;47.734;9.244;2024-02-21T01:14:39;9.33;;;4.23;;
5718;SDS011;2884;47.734;9.244;2024-02-21T01:17:04;9.27;;;3.93;;
5718;SDS011;2884;47.734;9.244;2024-02-21T01:19:31;8.38;;;3.75;;
5718;SDS011;2884;47.734;9.244;2024-02-21T01:21:56;11.10;;;4.70;;
5718;SDS011;2884;47.734;9.244;2024-02-21T01:24:22;11.80;;;4.57;;
5718;SDS011;2884;47.734;9.244;2024-02-21T01:26:49;6.93;;;4.47;;
5718;SDS011;2884;47.734;9.244;2024-02-21T01:29:14;8.90;;;4.07;;
5718;SDS011;2884;47.734;9.244;2024-02-21T01:31:40;9.87;;;4.03;;
5718;SDS011;2884;47.734;9.244;2024-02-21T01:34:05;5.17;;;3.47;;
5718;SDS011;2884;47.734;9.244;2024-02-21T01:36:31;7.43;;;3.30;;
5718;SDS011;2884;47.734;9.244;2024-02-21T01:38:57;3.70;;;3.30;;
5718;SDS011;2884;47.734;9.244;2024-02-21T01:41:22;9.13;;;4.00;;
5718;SDS011;2884;47.734;9.244;2024-02-21T01:43:47;5.23;;;3.57;;
5718;SDS011;2884;47.734;9.244;2024-02-21T01:46:13;10.63;;;4.00;;
5718;SDS011;2884;47.734;9.244;2024-02-21T01:48:39;4.67;;;3.87;;
5718;SDS011;2884;47.734;9.244;2024-02-21T01:51:04;8.17;;;3.97;;
5718;SDS011;2884;47.734;9.244;2024-02-21T01:53:32;5.70;;;3.90;;
5718;SDS011;2884;47.734;9.244;2024-02-21T01:56:00;9.52;;;4.90;;
5718;SDS011;2884;47.734;9.244;2024-02-21T01:58:26;10.77;;;3.50;;
5718;SDS011;2884;47.734;9.244;2024-02-21T02:00:53;9.20;;;4.40;;
5718;SDS011;2884;47.734;9.244;2024-02-21T02:03:21;4.80;;;3.40;;
5718;SDS011;2884;47.734;9.244;2024-02-21T02:05:48;5.43;;;3.87;;
5718;SDS011;2884;47.734;9.244;2024-02-21T02:08:14;10.93;;;3.58;;
5718;SDS011;2884;47.734;9.244;2024-02-21T02:10:40;11.55;;;4.20;;
5718;SDS011;2884;47.734;9.244;2024-02-21T02:13:06;5.60;;;3.70;;
5718;SDS011;2884;47.734;9.244;2024-02-21T02:15:42;6.20;;;3.60;;
5718;SDS011;2884;47.734;9.244;2024-02-21T02:18:08;7.88;;;3.63;;
5718;SDS011;2884;47.734;9.244;2024-02-21T02:20:34;7.10;;;3.17;;
5718;SDS011;2884;47.734;9.244;2024-02-21T02:23:01;9.60;;;3.50;;
5718;SDS011;2884;47.734;9.244;2024-02-21T02:25:35;6.97;;;3.50;;
5718;SDS011;2884;47.734;9.244;2024-02-21T02:28:02;7.05;;;3.50;;
5718;SDS011;2884;47.734;9.244;2024-02-21T02:30:31;10.98;;;3.83;;
5718;SDS011;2884;47.734;9.244;2024-02-21T02:32:58;10.90;;;4.18;;
5718;SDS011;2884;47.734;9.244;2024-02-21T02:35:24;3.30;;;3.00;;
5718;SDS011;2884;47.734;9.244;2024-02-21T02:37:50;4.43;;;3.40;;
5718;SDS011;2884;47.734;9.244;2024-02-21T02:40:16;7.13;;;3.67;;
5718;SDS011;2884;47.734;9.244;2024-02-21T02:42:42;7.20;;;3.35;;
5718;SDS011;2884;47.734;9.244;2024-02-21T02:45:08;6.80;;;3.50;;
5718;SDS011;2884;47.734;9.244;2024-02-21T02:47:34;7.80;;;3.38;;
5718;SDS011;2884;47.734;9.244;2024-02-21T02:50:00;9.73;;;3.47;;
5718;SDS011;2884;47.734;9.244;2024-02-21T02:52:25;4.57;;;2.80;;
5718;SDS011;2884;47.734;9.244;2024-02-21T02:54:51;7.30;;;3.50;;
5718;SDS011;2884;47.734;9.244;2024-02-21T02:57:18;8.43;;;4.10;;
5718;SDS011;2884;47.734;9.244;2024-02-21T02:59:49;7.20;;;3.97;;
5718;SDS011;2884;47.734;9.244;2024-02-21T03:02:17;5.50;;;3.65;;
5718;SDS011;2884;47.734;9.244;2024-02-21T03:04:43;7.03;;;4.10;;
5718;SDS011;2884;47.734;9.244;2024-02-21T03:07:09;6.20;;;3.23;;
5718;SDS011;2884;47.734;9.244;2024-02-21T03:09:37;5.05;;;3.80;;
5718;SDS011;2884;47.734;9.244;2024-02-21T03:12:03;6.72;;;3.33;;
5718;SDS011;2884;47.734;9.244;2024-02-21T03:14:29;4.65;;;3.53;;
5718;SDS011;2884;47.734;9.244;2024-02-21T03:16:55;6.67;;;3.50;;
5718;SDS011;2884;47.734;9.244;2024-02-21T03:19:21;3.80;;;3.30;;
5718;SDS011;2884;47.734;9.244;2024-02-21T03:21:47;10.50;;;3.20;;
5718;SDS011;2884;47.734;9.244;2024-02-21T03:24:15;5.97;;;3.50;;
5718;SDS011;2884;47.734;9.244;2024-02-21T03:26:41;7.63;;;3.38;;
5718;SDS011;2884;47.734;9.244;2024-02-21T03:29:07;8.23;;;4.33;;
5718;SDS011;2884;47.734;9.244;2024-02-21T03:31:33;6.10;;;3.72;;
5718;SDS011;2884;47.734;9.244;2024-02-21T03:33:58;4.30;;;3.63;;
5718;SDS011;2884;47.734;9.244;2024-02-21T03:36:24;5.83;;;3.40;;
5718;SDS011;2884;47.734;9.244;2024-02-21T03:38:50;8.60;;;3.60;;
5718;SDS011;2884;47.734;9.244;2024-02-21T03:41:15;5.33;;;3.43;;
5718;SDS011;2884;47.734;9.244;2024-02-21T03:43:40;5.80;;;3.27;;
5718;SDS011;2884;47.734;9.244;2024-02-21T03:46:06;8.47;;;4.07;;
5718;SDS011;2884;47.734;9.244;2024-02-21T03:48:32;5.80;;;3.77;;
5718;SDS011;2884;47.734;9.244;2024-02-21T03:50:57;5.17;;;3.30;;
5718;SDS011;2884;47.734;9.244;2024-02-21T03:53:23;7.15;;;4.00;;
5718;SDS011;2884;47.734;9.244;2024-02-21T03:55:49;8.23;;;3.60;;
5718;SDS011;2884;47.734;9.244;2024-02-21T03:58:14;4.70;;;4.03;;
5718;SDS011;2884;47.734;9.244;2024-02-21T04:00:40;9.30;;;4.40;;
5718;SDS011;2884;47.734;9.244;2024-02-21T04:03:06;5.15;;;3.30;;
5718;SDS011;2884;47.734;9.244;2024-02-21T04:05:31;6.13;;;3.67;;
5718;SDS011;2884;47.734;9.244;2024-02-21T04:07:57;7.53;;;4.03;;
5718;SDS011;2884;47.734;9.244;2024-02-21T04:10:23;6.45;;;3.53;;
5718;SDS011;2884;47.734;9.244;2024-02-21T04:12:49;8.10;;;3.87;;
5718;SDS011;2884;47.734;9.244;2024-02-21T04:15:18;5.45;;;3.05;;
5718;SDS011;2884;47.734;9.244;2024-02-21T04:17:44;9.10;;;3.88;;
5718;SDS011;2884;47.734;9.244;2024-02-21T04:20:13;5.57;;;3.73;;
5718;SDS011;2884;47.734;9.244;2024-02-21T04:22:40;6.18;;;3.88;;
5718;SDS011;2884;47.734;9.244;2024-02-21T04:25:06;8.67;;;3.83;;
5718;SDS011;2884;47.734;9.244;2024-02-21T04:27:31;9.80;;;3.83;;
5718;SDS011;2884;47.734;9.244;2024-02-21T04:29:57;3.63;;;3.30;;
5718;SDS011;2884;47.734;9.244;2024-02-21T04:32:23;6.10;;;3.30;;
5718;SDS011;2884;47.734;9.244;2024-02-21T04:34:48;7.60;;;3.50;;
5718;SDS011;2884;47.734;9.244;2024-02-21T04:37:14;6.07;;;3.10;;
5718;SDS011;2884;47.734;9.244;2024-02-21T04:39:39;8.17;;;4.40;;
5718;SDS011;2884;47.734;9.244;2024-02-21T04:42:05;7.87;;;4.30;;
5718;SDS011;2884;47.734;9.244;2024-02-21T04:44:31;8.03;;;4.50;;
5718;SDS011;2884;47.734;9.244;2024-02-21T04:46:56;6.13;;;4.17;;
5718;SDS011;2884;47.734;9.244;2024-02-21T04:49:24;6.80;;;4.28;;
5718;SDS011;2884;47.734;9.244;2024-02-21T04:51:50;6.00;;;3.80;;
5718;SDS011;2884;47.734;9.244;2024-02-21T04:54:15;9.37;;;4.07;;
5718;SDS011;2884;47.734;9.244;2024-02-21T04:56:41;6.13;;;3.57;;
5718;SDS011;2884;47.734;9.244;2024-02-21T04:59:06;9.87;;;3.30;;
5718;SDS011;2884;47.734;9.244;2024-02-21T05:01:32;7.00;;;3.20;;
5718;SDS011;2884;47.734;9.244;2024-02-21T05:03:57;9.13;;;3.60;;
5718;SDS011;2884;47.734;9.244;2024-02-21T05:06:23;5.57;;;3.33;;
5718;SDS011;2884;47.734;9.244;2024-02-21T05:08:48;6.23;;;4.23;;
5718;SDS011;2884;47.734;9.244;2024-02-21T05:11:14;8.03;;;4.63;;
5718;SDS011;2884;47.734;9.244;2024-02-21T05:13:40;15.67;;;4.07;;
5718;SDS011;2884;47.734;9.244;2024-02-21T05:16:05;7.17;;;4.17;;
5718;SDS011;2884;47.734;9.244;2024-02-21T05:18:32;13.43;;;4.50;;
5718;SDS011;2884;47.734;9.244;2024-02-21T05:20:58;6.10;;;4.20;;
5718;SDS011;2884;47.734;9.244;2024-02-21T05:23:24;9.73;;;4.13;;
5718;SDS011;2884;47.734;9.244;2024-02-21T05:25:50;9.43;;;4.00;;
5718;SDS011;2884;47.734;9.244;2024-02-21T05:28:16;7.40;;;3.63;;
5718;SDS011;2884;47.734;9.244;2024-02-21T05:30:44;9.13;;;3.63;;
5718;SDS011;2884;47.734;9.244;2024-02-21T05:33:10;7.25;;;3.67;;
5718;SDS011;2884;47.734;9.244;2024-02-21T05:35:36;6.10;;;3.50;;
5718;SDS011;2884;47.734;9.244;2024-02-21T05:38:02;6.55;;;3.47;;
5718;SDS011;2884;47.734;9.244;2024-02-21T05:40:31;5.32;;;3.30;;
5718;SDS011;2884;47.734;9.244;2024-02-21T05:42:57;4.77;;;3.43;;
5718;SDS011;2884;47.734;9.244;2024-02-21T05:45:23;8.57;;;3.90;;
5718;SDS011;2884;47.734;9.244;2024-02-21T05:47:48;8.53;;;4.30;;
5718;SDS011;2884;47.734;9.244;2024-02-21T05:50:15;5.00;;;4.50;;
5718;SDS011;2884;47.734;9.244;2024-02-21T05:52:40;8.70;;;4.07;;
5718;SDS011;2884;47.734;9.244;2024-02-21T05:55:06;9.90;;;3.70;;
5718;SDS011;2884;47.734;9.244;2024-02-21T05:57:32;6.75;;;4.10;;
5718;SDS011;2884;47.734;9.244;2024-02-21T05:59:58;5.30;;;3.53;;
5718;SDS011;2884;47.734;9.244;2024-02-21T06:02:23;9.27;;;4.40;;
5718;SDS011;2884;47.734;9.244;2024-02-21T06:04:49;11.57;;;4.33;;
5718;SDS011;2884;47.734;9.244;2024-02-21T06:07:14;5.27;;;3.53;;
5718;SDS011;2884;47.734;9.244;2024-02-21T06:09:40;5.70;;;4.00;;
5718;SDS011;2884;47.734;9.244;2024-02-21T06:12:06;3.23;;;3.03;;
5718;SDS011;2884;47.734;9.244;2024-02-21T06:14:31;11.10;;;3.73;;
5718;SDS011;2884;47.734;9.244;2024-02-21T06:16:57;5.93;;;3.77;;
5718;SDS011;2884;47.734;9.244;2024-02-21T06:19:23;11.93;;;4.00;;
5718;SDS011;2884;47.734;9.244;2024-02-21T06:21:48;6.10;;;3.63;;
5718;SDS011;2884;47.734;9.244;2024-02-21T06:24:14;6.90;;;4.37;;
5718;SDS011;2884;47.734;9.244;2024-02-21T06:26:40;7.13;;;3.73;;
5718;SDS011;2884;47.734;9.244;2024-02-21T06:29:05;5.93;;;4.68;;
5718;SDS011;2884;47.734;9.244;2024-02-21T06:31:31;6.83;;;4.43;;
5718;SDS011;2884;47.734;9.244;2024-02-21T06:33:57;12.40;;;5.20;;
5718;SDS011;2884;47.734;9.244;2024-02-21T06:36:22;9.17;;;4.60;;
5718;SDS011;2884;47.734;9.244;2024-02-21T06:38:48;7.07;;;3.87;;
5718;SDS011;2884;47.734;9.244;2024-02-21T06:41:14;8.20;;;4.70;;
5718;SDS011;2884;47.734;9.244;2024-02-21T06:43:40;10.20;;;4.07;;
5718;SDS011;2884;47.734;9.244;2024-02-21T06:46:06;4.43;;;4.00;;
5718;SDS011;2884;47.734;9.244;2024-02-21T06:48:32;9.67;;;4.80;;
5718;SDS011;2884;47.734;9.244;2024-02-21T06:50:57;6.23;;;4.30;;
5718;SDS011;2884;47.734;9.244;2024-02-21T06:53:22;5.23;;;3.90;;
5718;SDS011;2884;47.734;9.244;2024-02-21T06:55:48;5.30;;;3.83;;
5718;SDS011;2884;47.734;9.244;2024-02-21T06:58:17;7.87;;;4.47;;
5718;SDS011;2884;47.734;9.244;2024-02-21T07:00:42;9.52;;;5.43;;
5718;SDS011;2884;47.734;9.244;2024-02-21T07:03:08;9.87;;;5.67;;
5718;SDS011;2884;47.734;9.244;2024-02-21T07:05:34;10.50;;;5.83;;
5718;SDS011;2884;47.734;9.244;2024-02-21T07:07:59;12.10;;;7.10;;
5718;SDS011;2884;47.734;9.244;2024-02-21T07:10:25;10.10;;;4.80;;
5718;SDS011;2884;47.734;9.244;2024-02-21T07:12:50;7.27;;;5.00;;
5718;SDS011;2884;47.734;9.244;2024-02-21T07:15:17;11.73;;;4.63;;
5718;SDS011;2884;47.734;9.244;2024-02-21T07:17:43;8.00;;;5.03;;
5718;SDS011;2884;47.734;9.244;2024-02-21T07:20:09;7.63;;;4.87;;
5718;SDS011;2884;47.734;9.244;2024-02-21T07:22:35;8.43;;;4.63;;
5718;SDS011;2884;47.734;9.244;2024-02-21T07:25:01;8.23;;;4.63;;
5718;SDS011;2884;47.734;9.244;2024-02-21T07:27:27;9.00;;;4.40;;
5718;SDS011;2884;47.734;9.244;2024-02-21T07:29:56;13.43;;;4.50;;
5718;SDS011;2884;47.734;9.244;2024-02-21T07:32:22;5.17;;;4.07;;
5718;SDS011;2884;47.734;9.244;2024-02-21T07:34:47;6.77;;;4.57;;
5718;SDS011;2884;47.734;9.244;2024-02-21T07:37:13;5.50;;;4.30;;
5718;SDS011;2884;47.734;9.244;2024-02-21T07:39:38;9.30;;;3.57;;
5718;SDS011;2884;47.734;9.244;2024-02-21T07:42:04;5.77;;;4.33;;
5718;SDS011;2884;47.734;9.244;2024-02-21T07:44:29;6.67;;;4.40;;
5718;SDS011;2884;47.734;9.244;2024-02-21T07:46:57;9.77;;;4.63;;
5718;SDS011;2884;47.734;9.244;2024-02-21T07:49:22;7.30;;;3.90;;
5718;SDS011;2884;47.734;9.244;2024-02-21T07:51:48;12.83;;;3.80;;
5718;SDS011;2884;47.734;9.244;2024-02-21T07:54:13;10.43;;;4.37;;
5718;SDS011;2884;47.734;9.244;2024-02-21T07:56:39;6.53;;;3.47;;
5718;SDS011;2884;47.734;9.244;2024-02-21T07:59:04;10.10;;;3.50;;
5718;SDS011;2884;47.734;9.244;2024-02-21T08:01:30;7.73;;;2.83;;
5718;SDS011;2884;47.734;9.244;2024-02-21T08:03:56;4.63;;;2.87;;
5718;SDS011;2884;47.734;9.244;2024-02-21T08:06:21;5.80;;;3.03;;
5718;SDS011;2884;47.734;9.244;2024-02-21T08:08:47;4.53;;;2.80;;
5718;SDS011;2884;47.734;9.244;2024-02-21T08:11:12;6.13;;;3.17;;
5718;SDS011;2884;47.734;9.244;2024-02-21T08:13:38;6.53;;;3.27;;
5718;SDS011;2884;47.734;9.244;2024-02-21T08:16:03;7.37;;;3.53;;
5718;SDS011;2884;47.734;9.244;2024-02-21T08:18:29;6.77;;;3.20;;
5718;SDS011;2884;47.734;9.244;2024-02-21T08:20:54;5.70;;;3.17;;
5718;SDS011;2884;47.734;9.244;2024-02-21T08:23:23;4.20;;;2.70;;
5718;SDS011;2884;47.734;9.244;2024-02-21T08:25:49;4.80;;;2.73;;
5718;SDS011;2884;47.734;9.244;2024-02-21T08:28:15;4.37;;;3.03;;
5718;SDS011;2884;47.734;9.244;2024-02-21T08:30:41;4.60;;;2.80;;
5718;SDS011;2884;47.734;9.244;2024-02-21T08:33:12;5.73;;;2.40;;
5718;SDS011;2884;47.734;9.244;2024-02-21T08:35:38;2.73;;;2.53;;
5718;SDS011;2884;47.734;9.244;2024-02-21T08:38:04;5.70;;;2.80;;
5718;SDS011;2884;47.734;9.244;2024-02-21T08:40:29;7.43;;;3.00;;
5718;SDS011;2884;47.734;9.244;2024-02-21T08:42:55;6.70;;;3.07;;
5718;SDS011;2884;47.734;9.244;2024-02-21T08:45:20;8.30;;;3.60;;
5718;SDS011;2884;47.734;9.244;2024-02-21T08:47:46;6.93;;;2.87;;
5718;SDS011;2884;47.734;9.244;2024-02-21T08:50:11;6.67;;;3.70;;
5718;SDS011;2884;47.734;9.244;2024-02-21T08:52:37;4.07;;;3.30;;
5718;SDS011;2884;47.734;9.244;2024-02-21T08:55:03;7.97;;;3.50;;
5718;SDS011;2884;47.734;9.244;2024-02-21T08:57:28;5.67;;;3.17;;
5718;SDS011;2884;47.734;9.244;2024-02-21T08:59:54;4.83;;;3.13;;
5718;SDS011;2884;47.734;9.244;2024-02-21T09:02:20;8.00;;;3.40;;
5718;SDS011;2884;47.734;9.244;2024-02-21T09:04:45;8.57;;;3.40;;
5718;SDS011;2884;47.734;9.244;2024-02-21T09:07:11;5.70;;;3.50;;
5718;SDS011;2884;47.734;9.244;2024-02-21T09:09:36;4.70;;;3.30;;
5718;SDS011;2884;47.734;9.244;2024-02-21T09:12:04;5.33;;;3.40;;
5718;SDS011;2884;47.734;9.244;2024-02-21T09:14:32;4.73;;;3.27;;
5718;SDS011;2884;47.734;9.244;2024-02-21T09:16:58;3.67;;;3.27;;
5718;SDS011;2884;47.734;9.244;2024-02-21T09:19:23;7.13;;;3.90;;
5718;SDS011;2884;47.734;9.244;2024-02-21T09:21:49;7.03;;;3.43;;
5718;SDS011;2884;47.734;9.244;2024-02-21T09:24:14;7.80;;;3.40;;
5718;SDS011;2884;47.734;9.244;2024-02-21T09:26:40;4.43;;;3.23;;
5718;SDS011;2884;47.734;9.244;2024-02-21T09:29:06;4.93;;;3.30;;
5718;SDS011;2884;47.734;9.244;2024-02-21T09:31:31;4.87;;;3.00;;
5718;SDS011;2884;47.734;9.244;2024-02-21T09:33:57;4.93;;;3.27;;
5718;SDS011;2884;47.734;9.244;2024-02-21T09:36:22;7.57;;;3.97;;
5718;SDS011;2884;47.734;9.244;2024-02-21T09:38:48;7.10;;;3.93;;
5718;SDS011;2884;47.734;9.244;2024-02-21T09:43:45;5.50;;;3.70;;
5718;SDS011;2884;47.734;9.244;2024-02-21T09:46:13;5.17;;;3.80;;
5718;SDS011;2884;47.734;9.244;2024-02-21T09:51:17;5.80;;;3.60;;
5718;SDS011;2884;47.734;9.244;2024-02-21T09:53:44;7.00;;;4.00;;
5718;SDS011;2884;47.734;9.244;2024-02-21T09:56:11;5.17;;;3.93;;
5718;SDS011;2884;47.734;9.244;2024-02-21T09:58:37;5.10;;;3.60;;
5718;SDS011;2884;47.734;9.244;2024-02-21T10:01:03;7.47;;;3.67;;
5718;SDS011;2884;47.734;9.244;2024-02-21T10:03:32;6.40;;;3.70;;
5718;SDS011;2884;47.734;9.244;2024-02-21T10:05:58;7.50;;;3.57;;
5718;SDS011;2884;47.734;9.244;2024-02-21T10:08:26;6.00;;;3.47;;
5718;SDS011;2884;47.734;9.244;2024-02-21T10:10:51;5.37;;;4.20;;
5718;SDS011;2884;47.734;9.244;2024-02-21T10:13:28;7.03;;;3.50;;
5718;SDS011;2884;47.734;9.244;2024-02-21T10:16:04;3.90;;;2.90;;
5718;SDS011;2884;47.734;9.244;2024-02-21T10:18:31;4.90;;;3.20;;
5718;SDS011;2884;47.734;9.244;2024-02-21T10:21:01;4.27;;;3.40;;
5718;SDS011;2884;47.734;9.244;2024-02-21T10:23:27;3.93;;;3.17;;
5718;SDS011;2884;47.734;9.244;2024-02-21T10:25:53;4.97;;;2.90;;
5718;SDS011;2884;47.734;9.244;2024-02-21T10:28:18;4.63;;;2.97;;
5718;SDS011;2884;47.734;9.244;2024-02-21T10:30:51;4.70;;;2.90;;
5718;SDS011;2884;47.734;9.244;2024-02-21T10:33:18;4.00;;;3.30;;
5718;SDS011;2884;47.734;9.244;2024-02-21T10:35:47;8.07;;;3.07;;
5718;SDS011;2884;47.734;9.244;2024-02-21T10:38:12;6.50;;;2.33;;
5718;SDS011;2884;47.734;9.244;2024-02-21T10:40:38;9.30;;;2.60;;
5718;SDS011;2884;47.734;9.244;2024-02-21T10:43:04;5.30;;;2.53;;
5718;SDS011;2884;47.734;9.244;2024-02-21T10:45:32;4.87;;;2.70;;
5718;SDS011;2884;47.734;9.244;2024-02-21T10:48:08;3.43;;;2.43;;
5718;SDS011;2884;47.734;9.244;2024-02-21T10:50:57;4.27;;;2.10;;
5718;SDS011;2884;47.734;9.244;2024-02-21T10:53:40;11.20;;;2.33;;
5718;SDS011;2884;47.734;9.244;2024-02-21T10:56:33;4.93;;;2.07;;
5718;SDS011;2884;47.734;9.244;2024-02-21T10:59:03;2.00;;;1.83;;
5718;SDS011;2884;47.734;9.244;2024-02-21T11:01:29;5.30;;;2.33;;
5718;SDS011;2884;47.734;9.244;2024-02-21T11:04:03;4.23;;;2.40;;
5718;SDS011;2884;47.734;9.244;2024-02-21T11:06:30;5.67;;;2.87;;
5718;SDS011;2884;47.734;9.244;2024-02-21T11:09:09;4.83;;;2.80;;
5718;SDS011;2884;47.734;9.244;2024-02-21T11:11:39;3.03;;;2.50;;
5718;SDS011;2884;47.734;9.244;2024-02-21T11:14:09;5.53;;;2.80;;
5718;SDS011;2884;47.734;9.244;2024-02-21T11:16:37;2.90;;;2.60;;
5718;SDS011;2884;47.734;9.244;2024-02-21T11:19:04;4.23;;;3.00;;
5718;SDS011;2884;47.734;9.244;2024-02-21T11:21:51;5.23;;;2.93;;
5718;SDS011;2884;47.734;9.244;2024-02-21T11:24:29;4.40;;;2.73;;
5718;SDS011;2884;47.734;9.244;2024-02-21T11:26:56;8.00;;;2.83;;
5718;SDS011;2884;47.734;9.244;2024-02-21T11:29:33;8.23;;;2.50;;
5718;SDS011;2884;47.734;9.244;2024-02-21T11:32:09;5.60;;;2.07;;
5718;SDS011;2884;47.734;9.244;2024-02-21T11:34:40;5.90;;;3.40;;
5718;SDS011;2884;47.734;9.244;2024-02-21T11:37:15;5.63;;;3.13;;
5718;SDS011;2884;47.734;9.244;2024-02-21T11:39:41;3.50;;;2.67;;
5718;SDS011;2884;47.734;9.244;2024-02-21T11:42:07;6.73;;;3.07;;
5718;SDS011;2884;47.734;9.244;2024-02-21T11:44:36;4.97;;;3.00;;
5718;SDS011;2884;47.734;9.244;2024-02-21T11:47:07;4.60;;;2.50;;
5718;SDS011;2884;47.734;9.244;2024-02-21T11:49:37;4.57;;;2.87;;
5718;SDS011;2884;47.734;9.244;2024-02-21T11:52:04;9.00;;;3.23;;
5718;SDS011;2884;47.734;9.244;2024-02-21T11:54:31;6.43;;;3.20;;
5718;SDS011;2884;47.734;9.244;2024-02-21T11:56:56;5.87;;;2.43;;
5718;SDS011;2884;47.734;9.244;2024-02-21T11:59:22;5.00;;;2.97;;
5718;SDS011;2884;47.734;9.244;2024-02-21T12:01:48;3.73;;;2.57;;
5718;SDS011;2884;47.734;9.244;2024-02-21T12:04:15;5.90;;;2.60;;
5718;SDS011;2884;47.734;9.244;2024-02-21T12:06:43;3.83;;;2.50;;
5718;SDS011;2884;47.734;9.244;2024-02-21T12:09:09;3.13;;;2.20;;
5718;SDS011;2884;47.734;9.244;2024-02-21T12:11:39;3.47;;;2.43;;
5718;SDS011;2884;47.734;9.244;2024-02-21T12:14:05;3.17;;;1.93;;
5718;SDS011;2884;47.734;9.244;2024-02-21T12:16:31;4.87;;;2.90;;
5718;SDS011;2884;47.734;9.244;2024-02-21T12:18:58;4.17;;;2.23;;
5718;SDS011;2884;47.734;9.244;2024-02-21T12:21:24;3.40;;;2.50;;
5718;SDS011;2884;47.734;9.244;2024-02-21T12:23:53;2.00;;;1.90;;
5718;SDS011;2884;47.734;9.244;2024-02-21T12:26:19;4.10;;;2.60;;
5718;SDS011;2884;47.734;9.244;2024-02-21T12:28:45;3.13;;;2.43;;
5718;SDS011;2884;47.734;9.244;2024-02-21T12:31:10;3.03;;;2.23;;
5718;SDS011;2884;47.734;9.244;2024-02-21T12:33:36;5.60;;;2.10;;
5718;SDS011;2884;47.734;9.244;2024-02-21T12:36:02;4.10;;;2.00;;
5718;SDS011;2884;47.734;9.244;2024-02-21T12:38:29;3.53;;;1.90;;
5718;SDS011;2884;47.734;9.244;2024-02-21T12:40:55;5.13;;;2.17;;
5718;SDS011;2884;47.734;9.244;2024-02-21T12:43:22;5.03;;;2.70;;
5718;SDS011;2884;47.734;9.244;2024-02-21T12:45:48;8.20;;;2.50;;
5718;SDS011;2884;47.734;9.244;2024-02-21T12:48:14;3.43;;;1.83;;
5718;SDS011;2884;47.734;9.244;2024-02-21T12:50:41;3.13;;;1.70;;
5718;SDS011;2884;47.734;9.244;2024-02-21T12:53:13;6.30;;;2.33;;
5718;SDS011;2884;47.734;9.244;2024-02-21T12:55:41;3.23;;;1.90;;
5718;SDS011;2884;47.734;9.244;2024-02-21T12:58:06;4.70;;;2.60;;
5718;SDS011;2884;47.734;9.244;2024-02-21T13:00:32;3.37;;;1.90;;
5718;SDS011;2884;47.734;9.244;2024-02-21T13:03:00;2.70;;;1.90;;
5718;SDS011;2884;47.734;9.244;2024-02-21T13:05:25;3.93;;;2.40;;
5718;SDS011;2884;47.734;9.244;2024-02-21T13:07:51;2.90;;;2.60;;
5718;SDS011;2884;47.734;9.244;2024-02-21T13:10:16;6.60;;;3.80;;
5718;SDS011;2884;47.734;9.244;2024-02-21T13:12:43;7.53;;;4.10;;
5718;SDS011;2884;47.734;9.244;2024-02-21T13:15:09;6.37;;;3.20;;
5718;SDS011;2884;47.734;9.244;2024-02-21T13:17:37;5.03;;;2.47;;
5718;SDS011;2884;47.734;9.244;2024-02-21T13:20:02;5.00;;;3.17;;
5718;SDS011;2884;47.734;9.244;2024-02-21T13:22:29;3.80;;;2.97;;
5718;SDS011;2884;47.734;9.244;2024-02-21T13:24:54;4.20;;;2.80;;
5718;SDS011;2884;47.734;9.244;2024-02-21T13:27:20;4.73;;;2.53;;
5718;SDS011;2884;47.734;9.244;2024-02-21T13:29:45;4.67;;;2.80;;
5718;SDS011;2884;47.734;9.244;2024-02-21T13:32:11;6.27;;;2.73;;
5718;SDS011;2884;47.734;9.244;2024-02-21T13:34:36;11.30;;;3.17;;
5718;SDS011;2884;47.734;9.244;2024-02-21T13:37:02;4.03;;;2.40;;
5718;SDS011;2884;47.734;9.244;2024-02-21T13:39:29;3.30;;;2.03;;
5718;SDS011;2884;47.734;9.244;2024-02-21T13:41:55;3.00;;;2.20;;
5718;SDS011;2884;47.734;9.244;2024-02-21T13:44:21;2.40;;;2.20;;
5718;SDS011;2884;47.734;9.244;2024-02-21T13:46:46;10.67;;;5.27;;
5718;SDS011;2884;47.734;9.244;2024-02-21T13:49:12;3.93;;;2.60;;
5718;SDS011;2884;47.734;9.244;2024-02-21T13:51:37;5.97;;;2.13;;
5718;SDS011;2884;47.734;9.244;2024-02-21T13:54:03;2.83;;;2.30;;
5718;SDS011;2884;47.734;9.244;2024-02-21T13:56:30;3.50;;;2.30;;
5718;SDS011;2884;47.734;9.244;2024-02-21T13:58:57;4.37;;;2.23;;
5718;SDS011;2884;47.734;9.244;2024-02-21T14:01:23;5.73;;;2.40;;
5718;SDS011;2884;47.734;9.244;2024-02-21T14:03:52;3.63;;;2.00;;
5718;SDS011;2884;47.734;9.244;2024-02-21T14:06:17;3.97;;;2.27;;
5718;SDS011;2884;47.734;9.244;2024-02-21T14:08:43;5.17;;;2.70;;
5718;SDS011;2884;47.734;9.244;2024-02-21T14:11:08;7.53;;;2.23;;
5718;SDS011;2884;47.734;9.244;2024-02-21T14:13:34;3.30;;;2.20;;
5718;SDS011;2884;47.734;9.244;2024-02-21T14:16:00;3.47;;;2.67;;
5718;SDS011;2884;47.734;9.244;2024-02-21T14:18:25;5.23;;;2.40;;
5718;SDS011;2884;47.734;9.244;2024-02-21T14:20:51;5.77;;;2.40;;
5718;SDS011;2884;47.734;9.244;2024-02-21T14:23:17;4.93;;;2.40;;
5718;SDS011;2884;47.734;9.244;2024-02-21T14:25:42;2.67;;;2.10;;
5718;SDS011;2884;47.734;9.244;2024-02-21T14:28:08;3.57;;;2.80;;
5718;SDS011;2884;47.734;9.244;2024-02-21T14:30:36;4.10;;;2.50;;
5718;SDS011;2884;47.734;9.244;2024-02-21T14:33:02;4.60;;;2.60;;
5718;SDS011;2884;47.734;9.244;2024-02-21T14:35:28;4.30;;;2.67;;
5718;SDS011;2884;47.734;9.244;2024-02-21T14:37:53;4.20;;;2.20;;
5718;SDS011;2884;47.734;9.244;2024-02-21T14:40:22;5.30;;;2.43;;
5718;SDS011;2884;47.734;9.244;2024-02-21T14:42:48;3.47;;;1.97;;
5718;SDS011;2884;47.734;9.244;2024-02-21T14:45:13;3.77;;;2.00;;
5718;SDS011;2884;47.734;9.244;2024-02-21T14:47:39;3.80;;;2.20;;
5718;SDS011;2884;47.734;9.244;2024-02-21T14:50:05;2.33;;;2.10;;
5718;SDS011;2884;47.734;9.244;2024-02-21T14:52:32;4.00;;;2.37;;
5718;SDS011;2884;47.734;9.244;2024-02-21T14:55:01;4.50;;;2.73;;
5718;SDS011;2884;47.734;9.244;2024-02-21T14:57:28;4.27;;;2.20;;
5718;SDS011;2884;47.734;9.244;2024-02-21T14:59:53;5.80;;;2.20;;
5718;SDS011;2884;47.734;9.244;2024-02-21T15:02:24;5.20;;;2.33;;
5718;SDS011;2884;47.734;9.244;2024-02-21T15:04:50;3.30;;;2.57;;
5718;SDS011;2884;47.734;9.244;2024-02-21T15:07:16;4.83;;;2.00;;
5718;SDS011;2884;47.734;9.244;2024-02-21T15:09:42;4.23;;;2.17;;
5718;SDS011;2884;47.734;9.244;2024-02-21T15:12:08;4.47;;;2.50;;
5718;SDS011;2884;47.734;9.244;2024-02-21T15:14:34;6.80;;;2.90;;
5718;SDS011;2884;47.734;9.244;2024-02-21T15:17:00;4.63;;;3.07;;